Time,TemperatureF,DewpointF,PressureIn,WindDirection,WindDirectionDegrees,WindSpeedMPH,WindSpeedGustMPH,Humidity,HourlyPrecipIn,Conditions,Clouds,dailyrainin,SoftwareType,DateUTC
2013-01-01 00:00:00,25.9,17.5,30.12,North,0,7.1,14.4,70,0.00,,,0.00,WUHU216WMR100,2013-01-01 06:00:00,
2013-01-01 00:05:00,25.7,17.3,30.12,WNW,292,5.9,11.4,70,0.00,,,0.00,WUHU216WMR100,2013-01-01 06:05:00,
2013-01-01 00:11:00,25.5,17.1,30.12,WNW,292,6.6,11.4,70,0.00,,,0.00,WUHU216WMR100,2013-01-01 06:11:00,
2013-01-01 00:16:00,25.5,17.1,30.12,NNW,337,4.8,9.6,70,0.00,,,0.00,WUHU216WMR100,2013-01-01 06:16:00,
2013-01-01 00:21:00,25.3,16.9,30.12,NW,315,8.9,9.6,70,0.00,,,0.00,WUHU216WMR100,2013-01-01 06:21:00,
2013-01-01 00:25:00,25.3,17.3,30.12,NW,315,9.9,15.5,71,0.00,,,0.00,WUHU216WMR100,2013-01-01 06:25:00,
2013-01-01 00:30:00,25.3,17.3,30.12,NW,315,7.1,15.5,71,0.00,,,0.00,WUHU216WMR100,2013-01-01 06:30:00,
2013-01-01 00:35:00,25.2,17.2,30.12,NNW,337,9.6,17.0,71,0.00,,,0.00,WUHU216WMR100,2013-01-01 06:35:00,
2013-01-01 00:40:00,25.2,17.2,30.12,NNW,337,4.8,17.0,71,0.00,,,0.00,WUHU216WMR100,2013-01-01 06:40:00,
2013-01-01 00:46:00,25.2,17.2,30.12,NNW,337,6.3,9.6,71,0.00,,,0.00,WUHU216WMR100,2013-01-01 06:46:00,
2013-01-01 00:50:00,25.2,17.2,30.12,NNW,337,9.6,13.4,71,0.00,,,0.00,WUHU216WMR100,2013-01-01 06:50:00,
2013-01-01 00:55:00,25.0,17.0,30.12,North,0,4.1,13.4,71,0.00,,,0.00,WUHU216WMR100,2013-01-01 06:55:00,
2013-01-01 01:00:00,25.0,17.0,30.12,NW,315,3.6,10.7,71,0.00,,,0.00,WUHU216WMR100,2013-01-01 07:00:00,
2013-01-01 01:05:00,25.0,17.3,30.12,NNW,337,4.5,10.4,72,0.00,,,0.00,WUHU216WMR100,2013-01-01 07:05:00,
2013-01-01 01:10:00,24.8,17.1,30.12,NNW,337,7.4,11.1,72,0.00,,,0.00,WUHU216WMR100,2013-01-01 07:10:00,
2013-01-01 01:15:00,24.8,17.1,30.12,NW,315,9.9,11.1,72,0.00,,,0.00,WUHU216WMR100,2013-01-01 07:15:00,
2013-01-01 01:21:00,24.6,16.9,30.12,NW,315,5.1,12.5,72,0.00,,,0.00,WUHU216WMR100,2013-01-01 07:21:00,
2013-01-01 01:25:00,24.6,17.2,30.12,NNW,337,5.6,12.5,73,0.00,,,0.00,WUHU216WMR100,2013-01-01 07:25:00,
2013-01-01 01:31:00,24.6,17.2,30.12,NNW,337,5.6,9.9,73,0.00,,,0.00,WUHU216WMR100,2013-01-01 07:31:00,
2013-01-01 01:35:00,24.6,17.2,30.12,WNW,292,9.2,12.9,73,0.00,,,0.00,WUHU216WMR100,2013-01-01 07:35:00,
2013-01-01 01:41:00,24.6,17.2,30.12,NW,315,1.5,12.9,73,0.00,,,0.00,WUHU216WMR100,2013-01-01 07:41:00,
2013-01-01 01:45:00,24.6,17.5,30.12,NNW,337,10.4,10.4,74,0.00,,,0.00,WUHU216WMR100,2013-01-01 07:45:00,
2013-01-01 01:51:00,24.6,17.5,30.12,NW,315,4.5,10.4,74,0.00,,,0.00,WUHU216WMR100,2013-01-01 07:51:00,
2013-01-01 01:56:00,24.6,17.5,30.12,NNE,22,4.1,10.4,74,0.00,,,0.00,WUHU216WMR100,2013-01-01 07:56:00,
2013-01-01 02:01:00,24.6,17.5,30.12,NNW,337,4.8,7.1,74,0.00,,,0.00,WUHU216WMR100,2013-01-01 08:01:00,
2013-01-01 02:06:00,24.6,17.5,30.12,NW,315,4.5,9.2,74,0.00,,,0.00,WUHU216WMR100,2013-01-01 08:06:00,
2013-01-01 02:11:00,24.6,17.5,30.12,NW,315,9.6,9.6,74,0.00,,,0.00,WUHU216WMR100,2013-01-01 08:11:00,
2013-01-01 02:16:00,24.4,17.3,30.12,NNW,337,5.9,9.6,74,0.00,,,0.00,WUHU216WMR100,2013-01-01 08:16:00,
2013-01-01 02:21:00,24.4,17.3,30.12,NW,315,4.8,9.2,74,0.00,,,0.00,WUHU216WMR100,2013-01-01 08:21:00,
2013-01-01 02:26:00,24.4,17.3,30.12,NNW,337,9.2,9.6,74,0.00,,,0.00,WUHU216WMR100,2013-01-01 08:26:00,
2013-01-01 02:31:00,24.3,17.2,30.12,WNW,292,9.9,9.9,74,0.00,,,0.00,WUHU216WMR100,2013-01-01 08:31:00,
2013-01-01 02:36:00,24.3,17.2,30.12,NNW,337,9.2,10.4,74,0.00,,,0.00,WUHU216WMR100,2013-01-01 08:36:00,
2013-01-01 02:41:00,24.3,16.9,30.12,WNW,292,10.4,10.4,73,0.00,,,0.00,WUHU216WMR100,2013-01-01 08:41:00,
2013-01-01 02:46:00,24.3,17.2,30.12,NNW,337,4.1,10.7,74,0.00,,,0.00,WUHU216WMR100,2013-01-01 08:46:00,
2013-01-01 02:51:00,24.3,17.2,30.12,NW,315,5.6,12.5,74,0.00,,,0.00,WUHU216WMR100,2013-01-01 08:51:00,
2013-01-01 02:56:00,24.3,17.2,30.12,NW,315,3.6,12.5,74,0.00,,,0.00,WUHU216WMR100,2013-01-01 08:56:00,
2013-01-01 03:01:00,24.3,17.2,30.12,NNW,337,4.1,8.9,74,0.00,,,0.00,WUHU216WMR100,2013-01-01 09:01:00,
2013-01-01 03:06:00,24.1,17.0,30.12,NNW,337,5.6,5.6,74,0.00,,,0.00,WUHU216WMR100,2013-01-01 09:06:00,
2013-01-01 03:11:00,24.1,17.0,30.12,NNW,337,5.6,6.6,74,0.00,,,0.00,WUHU216WMR100,2013-01-01 09:11:00,
2013-01-01 03:16:00,24.1,17.0,30.12,NNW,337,2.1,7.1,74,0.00,,,0.00,WUHU216WMR100,2013-01-01 09:16:00,
2013-01-01 03:21:00,24.3,17.5,30.12,NW,315,3.3,7.1,75,0.00,,,0.00,WUHU216WMR100,2013-01-01 09:21:00,
2013-01-01 03:26:00,24.3,17.5,30.12,North,0,12.2,12.2,75,0.00,,,0.00,WUHU216WMR100,2013-01-01 09:26:00,
2013-01-01 03:31:00,24.3,17.9,30.12,NNW,337,8.1,12.2,76,0.00,,,0.00,WUHU216WMR100,2013-01-01 09:31:00,
2013-01-01 03:36:00,24.4,18.2,30.12,NNW,337,9.2,10.4,77,0.00,,,0.00,WUHU216WMR100,2013-01-01 09:36:00,
2013-01-01 03:41:00,24.4,17.9,30.15,WNW,292,5.6,9.2,76,0.00,,,0.00,WUHU216WMR100,2013-01-01 09:41:00,
2013-01-01 03:46:00,24.4,17.9,30.15,NW,315,5.6,5.9,76,0.00,,,0.00,WUHU216WMR100,2013-01-01 09:46:00,
2013-01-01 03:51:00,24.4,18.2,30.15,NNW,337,5.6,12.2,77,0.00,,,0.00,WUHU216WMR100,2013-01-01 09:51:00,
2013-01-01 03:56:00,24.4,18.2,30.12,NNW,337,6.3,12.2,77,0.00,,,0.00,WUHU216WMR100,2013-01-01 09:56:00,
2013-01-01 04:01:00,24.4,17.9,30.12,WNW,292,3.3,7.4,76,0.00,,,0.00,WUHU216WMR100,2013-01-01 10:01:00,
2013-01-01 04:06:00,24.4,17.9,30.12,WNW,292,5.6,7.4,76,0.00,,,0.00,WUHU216WMR100,2013-01-01 10:06:00,
2013-01-01 04:11:00,24.4,17.9,30.12,WNW,292,4.5,7.1,76,0.00,,,0.00,WUHU216WMR100,2013-01-01 10:11:00,
2013-01-01 04:16:00,24.4,17.9,30.12,NNW,337,4.1,6.6,76,0.00,,,0.00,WUHU216WMR100,2013-01-01 10:16:00,
2013-01-01 04:21:00,24.4,18.2,30.12,NW,315,4.1,7.8,77,0.00,,,0.00,WUHU216WMR100,2013-01-01 10:21:00,
2013-01-01 04:26:00,24.4,18.2,30.12,NW,315,4.5,7.8,77,0.00,,,0.00,WUHU216WMR100,2013-01-01 10:26:00,
2013-01-01 04:31:00,24.4,18.2,30.12,NNW,337,5.6,14.0,77,0.00,,,0.00,WUHU216WMR100,2013-01-01 10:31:00,
2013-01-01 04:36:00,24.4,18.2,30.12,NNW,337,4.8,14.0,77,0.00,,,0.00,WUHU216WMR100,2013-01-01 10:36:00,
2013-01-01 04:41:00,24.4,18.2,30.12,WNW,292,5.6,10.4,77,0.00,,,0.00,WUHU216WMR100,2013-01-01 10:41:00,
2013-01-01 04:46:00,24.3,18.1,30.12,NNW,337,4.1,12.5,77,0.00,,,0.00,WUHU216WMR100,2013-01-01 10:46:00,
2013-01-01 04:51:00,24.3,18.1,30.12,NW,315,3.3,12.5,77,0.00,,,0.00,WUHU216WMR100,2013-01-01 10:51:00,
2013-01-01 04:56:00,24.3,18.1,30.12,WNW,292,4.1,7.1,77,0.00,,,0.00,WUHU216WMR100,2013-01-01 10:56:00,
2013-01-01 05:01:00,24.1,18.0,30.12,NW,315,4.8,8.1,77,0.00,,,0.00,WUHU216WMR100,2013-01-01 11:01:00,
2013-01-01 05:06:00,24.1,18.0,30.12,WNW,292,4.5,8.1,77,0.00,,,0.00,WUHU216WMR100,2013-01-01 11:06:00,
2013-01-01 05:11:00,24.1,18.0,30.15,NW,315,3.6,6.3,77,0.00,,,0.00,WUHU216WMR100,2013-01-01 11:11:00,
2013-01-01 05:16:00,23.9,17.8,30.15,WNW,292,4.8,10.7,77,0.00,,,0.00,WUHU216WMR100,2013-01-01 11:16:00,
2013-01-01 05:21:00,23.7,17.6,30.15,NW,315,4.1,10.7,77,0.00,,,0.00,WUHU216WMR100,2013-01-01 11:21:00,
2013-01-01 05:26:00,23.5,17.1,30.15,NW,315,5.6,7.1,76,0.00,,,0.00,WUHU216WMR100,2013-01-01 11:26:00,
2013-01-01 05:31:00,23.5,17.1,30.15,WNW,292,5.9,7.1,76,0.00,,,0.00,WUHU216WMR100,2013-01-01 11:31:00,
2013-01-01 05:36:00,23.4,17.0,30.15,WNW,292,4.1,7.1,76,0.00,,,0.00,WUHU216WMR100,2013-01-01 11:36:00,
2013-01-01 05:41:00,23.4,16.7,30.15,NW,315,7.1,7.1,75,0.00,,,0.00,WUHU216WMR100,2013-01-01 11:41:00,
2013-01-01 05:46:00,23.2,16.5,30.15,WNW,292,5.1,7.1,75,0.00,,,0.00,WUHU216WMR100,2013-01-01 11:46:00,
2013-01-01 05:51:00,23.0,16.3,30.15,WNW,292,6.6,7.1,75,0.00,,,0.00,WUHU216WMR100,2013-01-01 11:51:00,
2013-01-01 05:56:00,22.8,15.5,30.18,NW,315,6.6,14.4,73,0.00,,,0.00,WUHU216WMR100,2013-01-01 11:56:00,
2013-01-01 06:01:00,22.5,14.2,30.18,WNW,292,1.8,14.4,70,0.00,,,0.00,WUHU216WMR100,2013-01-01 12:01:00,
2013-01-01 06:06:00,22.1,13.5,30.18,NW,315,4.8,6.6,69,0.00,,,0.00,WUHU216WMR100,2013-01-01 12:06:00,
2013-01-01 06:11:00,21.9,12.7,30.15,WNW,292,4.5,7.1,67,0.00,,,0.00,WUHU216WMR100,2013-01-01 12:11:00,
2013-01-01 06:16:00,21.6,12.0,30.15,WNW,292,4.5,7.1,66,0.00,,,0.00,WUHU216WMR100,2013-01-01 12:16:00,
2013-01-01 06:21:00,21.2,11.3,30.15,WNW,292,6.6,6.6,65,0.00,,,0.00,WUHU216WMR100,2013-01-01 12:21:00,
2013-01-01 06:26:00,21.2,11.3,30.15,NW,315,2.6,6.6,65,0.00,,,0.00,WUHU216WMR100,2013-01-01 12:26:00,
2013-01-01 06:31:00,21.0,11.1,30.15,WNW,292,2.1,7.4,65,0.00,,,0.00,WUHU216WMR100,2013-01-01 12:31:00,
2013-01-01 06:36:00,20.8,10.9,30.15,WSW,247,4.5,7.4,65,0.00,,,0.00,WUHU216WMR100,2013-01-01 12:36:00,
2013-01-01 06:41:00,20.7,10.8,30.15,WNW,292,7.8,7.8,65,0.00,,,0.00,WUHU216WMR100,2013-01-01 12:41:00,
2013-01-01 06:46:00,20.5,10.3,30.15,WNW,292,7.1,7.8,64,0.00,,,0.00,WUHU216WMR100,2013-01-01 12:46:00,
2013-01-01 06:51:00,20.3,10.5,30.15,NNW,337,5.9,8.1,65,0.00,,,0.00,WUHU216WMR100,2013-01-01 12:51:00,
2013-01-01 06:56:00,20.1,10.3,30.15,WNW,292,4.5,8.1,65,0.00,,,0.00,WUHU216WMR100,2013-01-01 12:56:00,
2013-01-01 07:01:00,19.9,10.4,30.15,NW,315,5.9,6.3,66,0.00,,,0.00,WUHU216WMR100,2013-01-01 13:01:00,
2013-01-01 07:06:00,19.8,10.3,30.15,WNW,292,4.5,6.3,66,0.00,,,0.00,WUHU216WMR100,2013-01-01 13:06:00,
2013-01-01 07:11:00,19.5,9.7,30.18,WNW,292,6.3,8.9,65,0.00,,,0.00,WUHU216WMR100,2013-01-01 13:11:00,
2013-01-01 07:16:00,19.5,10.0,30.18,WNW,292,4.5,8.9,66,0.00,,,0.00,WUHU216WMR100,2013-01-01 13:16:00,
2013-01-01 07:21:00,19.2,9.8,30.18,NW,315,3.3,6.3,66,0.00,,,0.00,WUHU216WMR100,2013-01-01 13:21:00,
2013-01-01 07:26:00,19.0,9.5,30.18,West,270,4.5,5.1,66,0.00,,,0.00,WUHU216WMR100,2013-01-01 13:26:00,
2013-01-01 07:31:00,18.9,9.5,30.18,NW,315,9.2,9.2,66,0.00,,,0.00,WUHU216WMR100,2013-01-01 13:31:00,
2013-01-01 07:36:00,18.7,9.2,30.18,NNW,337,3.6,9.2,66,0.00,,,0.00,WUHU216WMR100,2013-01-01 13:36:00,
2013-01-01 07:41:00,18.6,9.2,30.18,WNW,292,4.1,9.2,66,0.00,,,0.00,WUHU216WMR100,2013-01-01 13:41:00,
2013-01-01 07:46:00,18.6,9.2,30.18,WNW,292,4.5,7.8,66,0.00,,,0.00,WUHU216WMR100,2013-01-01 13:46:00,
2013-01-01 07:51:00,18.5,9.4,30.18,WNW,292,4.1,7.8,67,0.00,,,0.00,WUHU216WMR100,2013-01-01 13:51:00,
2013-01-01 07:56:00,18.5,9.4,30.18,NW,315,4.5,8.1,67,0.00,,,0.00,WUHU216WMR100,2013-01-01 13:56:00,
2013-01-01 08:01:00,19.2,10.1,30.18,WNW,292,2.6,8.1,67,0.00,,,0.00,WUHU216WMR100,2013-01-01 14:01:00,
2013-01-01 08:06:00,18.8,9.3,30.18,NW,315,4.8,5.9,66,0.00,,,0.00,WUHU216WMR100,2013-01-01 14:06:00,
2013-01-01 08:11:00,18.7,9.6,30.18,NNW,337,1.5,6.3,67,0.00,,,0.00,WUHU216WMR100,2013-01-01 14:11:00,
2013-01-01 08:16:00,19.1,10.3,30.18,WNW,292,4.5,6.3,68,0.00,,,0.00,WUHU216WMR100,2013-01-01 14:16:00,
2013-01-01 08:21:00,19.1,10.3,30.18,NNW,337,3.3,5.1,68,0.00,,,0.00,WUHU216WMR100,2013-01-01 14:21:00,
2013-01-01 08:26:00,19.5,11.0,30.18,NNW,337,5.6,5.6,69,0.00,,,0.00,WUHU216WMR100,2013-01-01 14:26:00,
2013-01-01 08:31:00,19.8,11.3,30.18,WNW,292,4.5,5.6,69,0.00,,,0.00,WUHU216WMR100,2013-01-01 14:31:00,
2013-01-01 08:36:00,20.1,11.6,30.18,NW,315,3.3,5.6,69,0.00,,,0.00,WUHU216WMR100,2013-01-01 14:36:00,
2013-01-01 08:41:00,20.4,11.9,30.18,WNW,292,5.1,5.6,69,0.00,,,0.00,WUHU216WMR100,2013-01-01 14:41:00,
2013-01-01 08:46:00,20.6,12.4,30.18,WNW,292,5.9,5.9,70,0.00,,,0.00,WUHU216WMR100,2013-01-01 14:46:00,
2013-01-01 08:51:00,21.0,14.1,30.18,NW,315,9.2,9.2,74,0.00,,,0.00,WUHU216WMR100,2013-01-01 14:51:00,
2013-01-01 08:56:00,21.4,15.3,30.15,NNW,337,4.5,12.9,77,0.00,,,0.00,WUHU216WMR100,2013-01-01 14:56:00,
2013-01-01 09:01:00,21.6,15.6,30.15,NW,315,4.8,12.9,77,0.00,,,0.00,WUHU216WMR100,2013-01-01 15:01:00,
2013-01-01 09:06:00,22.0,15.9,30.15,North,0,9.2,12.5,77,0.00,,,0.00,WUHU216WMR100,2013-01-01 15:06:00,
2013-01-01 09:11:00,22.1,16.1,30.15,NNW,337,17.3,17.3,77,0.00,,,0.00,WUHU216WMR100,2013-01-01 15:11:00,
2013-01-01 09:16:00,22.2,16.4,30.15,NW,315,9.6,17.3,78,0.00,,,0.00,WUHU216WMR100,2013-01-01 15:16:00,
2013-01-01 09:21:00,22.6,16.7,30.15,NW,315,6.3,9.6,78,0.00,,,0.00,WUHU216WMR100,2013-01-01 15:21:00,
2013-01-01 09:26:00,22.7,16.6,30.15,WNW,292,9.2,11.4,77,0.00,,,0.00,WUHU216WMR100,2013-01-01 15:26:00,
2013-01-01 09:31:00,23.0,16.9,30.15,NW,315,4.1,11.4,77,0.00,,,0.00,WUHU216WMR100,2013-01-01 15:31:00,
2013-01-01 09:36:00,23.3,16.6,30.15,NNW,337,8.1,12.9,75,0.00,,,0.00,WUHU216WMR100,2013-01-01 15:36:00,
2013-01-01 09:41:00,23.8,16.7,30.18,WNW,292,2.6,12.9,74,0.00,,,0.00,WUHU216WMR100,2013-01-01 15:41:00,
2013-01-01 09:46:00,23.7,16.1,30.18,NNW,337,2.6,8.1,72,0.00,,,0.00,WUHU216WMR100,2013-01-01 15:46:00,
2013-01-01 09:51:00,24.1,16.1,30.18,NNW,337,5.1,8.9,71,0.00,,,0.00,WUHU216WMR100,2013-01-01 15:51:00,
2013-01-01 09:56:00,24.3,15.6,30.21,NW,315,9.2,10.4,69,0.00,,,0.00,WUHU216WMR100,2013-01-01 15:56:00,
2013-01-01 10:01:00,24.4,15.8,30.21,WNW,292,5.1,10.4,69,0.00,,,0.00,WUHU216WMR100,2013-01-01 16:01:00,
2013-01-01 10:06:00,24.7,16.0,30.21,NNW,337,4.8,9.2,69,0.00,,,0.00,WUHU216WMR100,2013-01-01 16:06:00,
2013-01-01 10:11:00,24.9,15.8,30.18,NW,315,5.9,7.1,68,0.00,,,0.00,WUHU216WMR100,2013-01-01 16:11:00,
2013-01-01 10:16:00,24.8,15.1,30.18,NNE,22,9.9,9.9,66,0.00,,,0.00,WUHU216WMR100,2013-01-01 16:16:00,
2013-01-01 10:21:00,24.8,15.1,30.18,WSW,247,9.6,9.9,66,0.00,,,0.00,WUHU216WMR100,2013-01-01 16:21:00,
2013-01-01 10:26:00,24.8,14.7,30.18,NNW,337,4.1,9.9,65,0.00,,,0.00,WUHU216WMR100,2013-01-01 16:26:00,
2013-01-01 10:31:00,24.9,14.2,30.18,WNW,292,4.5,9.6,63,0.00,,,0.00,WUHU216WMR100,2013-01-01 16:31:00,
2013-01-01 10:36:00,24.9,13.4,30.18,NNW,337,4.5,12.9,61,0.00,,,0.00,WUHU216WMR100,2013-01-01 16:36:00,
2013-01-01 10:41:00,25.2,14.0,30.18,NNW,337,6.6,12.9,62,0.00,,,0.00,WUHU216WMR100,2013-01-01 16:41:00,
2013-01-01 10:46:00,25.1,14.0,30.18,WSW,247,4.1,9.2,62,0.00,,,0.00,WUHU216WMR100,2013-01-01 16:46:00,
2013-01-01 10:51:00,25.0,13.5,30.18,NW,315,5.9,9.2,61,0.00,,,0.00,WUHU216WMR100,2013-01-01 16:51:00,
2013-01-01 10:56:00,25.3,14.1,30.21,WNW,292,4.5,9.2,62,0.00,,,0.00,WUHU216WMR100,2013-01-01 16:56:00,
2013-01-01 11:01:00,25.0,13.1,30.21,NW,315,3.3,9.9,60,0.00,,,0.00,WUHU216WMR100,2013-01-01 17:01:00,
2013-01-01 11:06:00,25.2,13.7,30.21,WNW,292,3.3,9.9,61,0.00,,,0.00,WUHU216WMR100,2013-01-01 17:06:00,
2013-01-01 11:11:00,25.4,13.9,30.21,WSW,247,4.5,6.6,61,0.00,,,0.00,WUHU216WMR100,2013-01-01 17:11:00,
2013-01-01 11:16:00,25.4,13.1,30.21,West,270,5.9,10.7,59,0.00,,,0.00,WUHU216WMR100,2013-01-01 17:16:00,
2013-01-01 11:21:00,25.7,13.8,30.21,WNW,292,7.4,10.7,60,0.00,,,0.00,WUHU216WMR100,2013-01-01 17:21:00,
2013-01-01 11:26:00,25.8,13.1,30.21,NW,315,4.8,7.8,58,0.00,,,0.00,WUHU216WMR100,2013-01-01 17:26:00,
2013-01-01 11:31:00,26.0,12.9,30.21,WNW,292,6.3,8.9,57,0.00,,,0.00,WUHU216WMR100,2013-01-01 17:31:00,
2013-01-01 11:36:00,26.9,13.3,30.21,NNW,337,4.5,8.9,56,0.00,,,0.00,WUHU216WMR100,2013-01-01 17:36:00,
2013-01-01 11:41:00,27.5,13.8,30.18,WNW,292,4.1,6.6,56,0.00,,,0.00,WUHU216WMR100,2013-01-01 17:41:00,
2013-01-01 11:46:00,27.7,13.7,30.18,NW,315,7.1,7.8,55,0.00,,,0.00,WUHU216WMR100,2013-01-01 17:46:00,
2013-01-01 11:51:00,27.5,13.5,30.18,NNW,337,4.8,8.9,55,0.00,,,0.00,WUHU216WMR100,2013-01-01 17:51:00,
2013-01-01 11:56:00,27.7,14.1,30.18,WNW,292,7.1,9.2,56,0.00,,,0.00,WUHU216WMR100,2013-01-01 17:56:00,
2013-01-01 12:01:00,27.2,14.0,30.18,NNW,337,5.9,11.9,57,0.00,,,0.00,WUHU216WMR100,2013-01-01 18:01:00,
2013-01-01 12:06:00,27.0,14.6,30.18,NNW,337,5.6,11.9,59,0.00,,,0.00,WUHU216WMR100,2013-01-01 18:06:00,
2013-01-01 12:11:00,27.4,14.1,30.18,NW,315,6.3,8.9,57,0.00,,,0.00,WUHU216WMR100,2013-01-01 18:11:00,
2013-01-01 12:16:00,27.5,13.8,30.18,North,0,5.1,8.9,56,0.00,,,0.00,WUHU216WMR100,2013-01-01 18:16:00,
2013-01-01 12:21:00,27.8,14.2,30.18,NW,315,4.5,8.9,56,0.00,,,0.00,WUHU216WMR100,2013-01-01 18:21:00,
2013-01-01 12:26:00,28.3,13.8,30.15,NNW,337,6.3,9.2,54,0.00,,,0.00,WUHU216WMR100,2013-01-01 18:26:00,
2013-01-01 12:31:00,28.5,13.5,30.15,NNW,337,8.1,9.9,53,0.00,,,0.00,WUHU216WMR100,2013-01-01 18:31:00,
2013-01-01 12:36:00,29.2,14.2,30.15,NNW,337,3.3,9.9,53,0.00,,,0.00,WUHU216WMR100,2013-01-01 18:36:00,
2013-01-01 12:41:00,28.5,13.1,30.15,WSW,247,5.6,8.1,52,0.00,,,0.00,WUHU216WMR100,2013-01-01 18:41:00,
2013-01-01 12:46:00,29.1,13.2,30.15,NW,315,6.6,8.1,51,0.00,,,0.00,WUHU216WMR100,2013-01-01 18:46:00,
2013-01-01 12:51:00,28.0,12.1,30.15,NNW,337,6.6,8.1,51,0.00,,,0.00,WUHU216WMR100,2013-01-01 18:51:00,
2013-01-01 12:56:00,27.1,12.2,30.15,NNW,337,9.9,12.2,53,0.00,,,0.00,WUHU216WMR100,2013-01-01 18:56:00,
2013-01-01 13:01:00,27.1,12.6,30.15,NNW,337,12.2,12.2,54,0.00,,,0.00,WUHU216WMR100,2013-01-01 19:01:00,
2013-01-01 13:06:00,25.6,11.7,30.15,NW,315,4.5,12.5,55,0.00,,,0.00,WUHU216WMR100,2013-01-01 19:06:00,
2013-01-01 13:11:00,25.3,12.6,30.15,NNW,337,7.1,12.5,58,0.00,,,0.00,WUHU216WMR100,2013-01-01 19:11:00,
2013-01-01 13:16:00,24.4,11.8,30.15,NW,315,5.9,9.2,58,0.00,,,0.00,WUHU216WMR100,2013-01-01 19:16:00,
2013-01-01 13:21:00,24.7,12.4,30.15,NNE,22,9.6,9.9,59,0.00,,,0.00,WUHU216WMR100,2013-01-01 19:21:00,
2013-01-01 13:26:00,25.8,12.7,30.15,WNW,292,10.4,12.5,57,0.00,,,0.00,WUHU216WMR100,2013-01-01 19:26:00,
2013-01-01 13:31:00,26.2,12.2,30.15,NNW,337,12.2,12.5,55,0.00,,,0.00,WUHU216WMR100,2013-01-01 19:31:00,
2013-01-01 13:36:00,26.2,11.4,30.15,NNW,337,13.4,13.4,53,0.00,,,0.00,WUHU216WMR100,2013-01-01 19:36:00,
2013-01-01 13:41:00,25.8,11.4,30.15,NW,315,9.2,13.4,54,0.00,,,0.00,WUHU216WMR100,2013-01-01 19:41:00,
2013-01-01 13:46:00,25.8,11.5,30.15,WNW,292,5.6,13.4,54,0.00,,,0.00,WUHU216WMR100,2013-01-01 19:46:00,
2013-01-01 13:51:00,25.6,11.7,30.15,NW,315,6.3,9.6,55,0.00,,,0.00,WUHU216WMR100,2013-01-01 19:51:00,
2013-01-01 13:56:00,25.9,11.5,30.15,NNW,337,10.7,10.7,54,0.00,,,0.00,WUHU216WMR100,2013-01-01 19:56:00,
2013-01-01 14:01:00,24.5,10.2,30.15,NNW,337,9.6,10.7,54,0.00,,,0.00,WUHU216WMR100,2013-01-01 20:01:00,
2013-01-01 14:06:00,24.3,10.4,30.15,NW,315,8.9,10.7,55,0.00,,,0.00,WUHU216WMR100,2013-01-01 20:06:00,
2013-01-01 14:11:00,23.6,10.6,30.15,WNW,292,4.8,10.4,57,0.00,,,0.00,WUHU216WMR100,2013-01-01 20:11:00,
2013-01-01 14:16:00,23.4,10.4,30.15,NNE,22,8.9,9.2,57,0.00,,,0.00,WUHU216WMR100,2013-01-01 20:16:00,
2013-01-01 14:21:00,23.0,10.5,30.15,NNW,337,7.1,9.2,58,0.00,,,0.00,WUHU216WMR100,2013-01-01 20:21:00,
2013-01-01 14:26:00,22.7,10.6,30.15,NNW,337,7.8,8.9,59,0.00,,,0.00,WUHU216WMR100,2013-01-01 20:26:00,
2013-01-01 14:31:00,22.6,10.8,30.15,NNW,337,4.5,8.1,60,0.00,,,0.00,WUHU216WMR100,2013-01-01 20:31:00,
2013-01-01 14:36:00,22.6,10.8,30.15,NNW,337,7.4,8.1,60,0.00,,,0.00,WUHU216WMR100,2013-01-01 20:36:00,
2013-01-01 14:41:00,23.0,10.8,30.15,North,0,9.9,9.9,59,0.00,,,0.00,WUHU216WMR100,2013-01-01 20:41:00,
2013-01-01 14:46:00,23.1,10.9,30.15,NNE,22,5.9,9.9,59,0.00,,,0.00,WUHU216WMR100,2013-01-01 20:46:00,
2013-01-01 14:51:00,23.2,11.0,30.15,NNE,22,4.8,9.9,59,0.00,,,0.00,WUHU216WMR100,2013-01-01 20:51:00,
2013-01-01 14:56:00,24.0,11.7,30.15,NE,45,4.8,6.6,59,0.00,,,0.00,WUHU216WMR100,2013-01-01 20:56:00,
2013-01-01 15:01:00,24.0,11.4,30.15,NNW,337,5.9,5.9,58,0.00,,,0.00,WUHU216WMR100,2013-01-01 21:01:00,
2013-01-01 15:06:00,23.4,10.4,30.15,NNW,337,4.8,5.9,57,0.00,,,0.00,WUHU216WMR100,2013-01-01 21:06:00,
2013-01-01 15:11:00,22.8,10.2,30.15,NW,315,6.3,7.1,58,0.00,,,0.00,WUHU216WMR100,2013-01-01 21:11:00,
2013-01-01 15:16:00,22.6,10.0,30.15,NNE,22,4.8,7.8,58,0.00,,,0.00,WUHU216WMR100,2013-01-01 21:16:00,
2013-01-01 15:21:00,22.4,10.3,30.15,NNW,337,5.6,7.8,59,0.00,,,0.00,WUHU216WMR100,2013-01-01 21:21:00,
2013-01-01 15:26:00,22.3,10.6,30.15,North,0,2.1,7.1,60,0.00,,,0.00,WUHU216WMR100,2013-01-01 21:26:00,
2013-01-01 15:31:00,22.2,10.0,30.15,NNW,337,9.6,9.6,59,0.00,,,0.00,WUHU216WMR100,2013-01-01 21:31:00,
2013-01-01 15:36:00,22.2,10.5,30.15,NW,315,7.1,9.6,60,0.00,,,0.00,WUHU216WMR100,2013-01-01 21:36:00,
2013-01-01 15:41:00,22.0,9.9,30.15,NNW,337,4.5,9.6,59,0.00,,,0.00,WUHU216WMR100,2013-01-01 21:41:00,
2013-01-01 15:46:00,21.9,9.8,30.15,NNW,337,5.6,7.8,59,0.00,,,0.00,WUHU216WMR100,2013-01-01 21:46:00,
2013-01-01 15:51:00,21.7,9.6,30.15,NNW,337,3.3,7.8,59,0.00,,,0.00,WUHU216WMR100,2013-01-01 21:51:00,
2013-01-01 15:56:00,21.7,10.0,30.15,NNW,337,3.6,6.6,60,0.00,,,0.00,WUHU216WMR100,2013-01-01 21:56:00,
2013-01-01 16:01:00,21.7,10.0,30.15,NNW,337,3.3,6.6,60,0.00,,,0.00,WUHU216WMR100,2013-01-01 22:01:00,
2013-01-01 16:06:00,21.5,9.4,30.15,NW,315,3.3,6.6,59,0.00,,,0.00,WUHU216WMR100,2013-01-01 22:06:00,
2013-01-01 16:11:00,21.3,9.6,30.15,North,0,3.3,6.6,60,0.00,,,0.00,WUHU216WMR100,2013-01-01 22:11:00,
2013-01-01 16:16:00,21.2,9.5,30.15,NE,45,3.3,4.1,60,0.00,,,0.00,WUHU216WMR100,2013-01-01 22:16:00,
2013-01-01 16:21:00,21.0,9.3,30.15,NNE,22,0.0,4.1,60,0.00,,,0.00,WUHU216WMR100,2013-01-01 22:21:00,
2013-01-01 16:26:00,20.8,9.1,30.15,NW,315,4.1,4.1,60,0.00,,,0.00,WUHU216WMR100,2013-01-01 22:26:00,
2013-01-01 16:31:00,20.6,8.9,30.15,NNW,337,0.0,4.1,60,0.00,,,0.00,WUHU216WMR100,2013-01-01 22:31:00,
2013-01-01 16:36:00,20.4,9.2,30.15,NNW,337,2.1,4.1,61,0.00,,,0.00,WUHU216WMR100,2013-01-01 22:36:00,
2013-01-01 16:41:00,20.3,9.0,30.15,NNE,22,2.1,4.1,61,0.00,,,0.00,WUHU216WMR100,2013-01-01 22:41:00,
2013-01-01 16:46:00,20.2,9.0,30.15,NNW,337,0.0,3.6,61,0.00,,,0.00,WUHU216WMR100,2013-01-01 22:46:00,
2013-01-01 16:51:00,19.9,9.0,30.15,NNW,337,0.0,3.6,62,0.00,,,0.00,WUHU216WMR100,2013-01-01 22:51:00,
2013-01-01 16:56:00,19.5,8.3,30.15,NNW,337,0.0,2.1,61,0.00,,,0.00,WUHU216WMR100,2013-01-01 22:56:00,
2013-01-01 17:01:00,19.3,8.0,30.15,NNW,337,0.0,2.1,61,0.00,,,0.00,WUHU216WMR100,2013-01-01 23:01:00,
2013-01-01 17:06:00,19.1,8.3,30.15,NNW,337,0.0,0.0,62,0.00,,,0.00,WUHU216WMR100,2013-01-01 23:06:00,
2013-01-01 17:11:00,18.7,7.8,30.15,NNW,337,0.0,0.0,62,0.00,,,0.00,WUHU216WMR100,2013-01-01 23:11:00,
2013-01-01 17:16:00,18.3,7.5,30.15,NNW,337,0.0,0.0,62,0.00,,,0.00,WUHU216WMR100,2013-01-01 23:16:00,
2013-01-01 17:21:00,18.0,7.2,30.15,NNW,337,0.0,0.0,62,0.00,,,0.00,WUHU216WMR100,2013-01-01 23:21:00,
2013-01-01 17:26:00,17.3,7.2,30.15,NNW,337,0.0,0.0,64,0.00,,,0.00,WUHU216WMR100,2013-01-01 23:26:00,
2013-01-01 17:31:00,17.0,7.0,30.15,NNW,337,0.0,0.0,64,0.00,,,0.00,WUHU216WMR100,2013-01-01 23:31:00,
2013-01-01 17:36:00,16.5,6.8,30.15,NNW,337,0.0,0.0,65,0.00,,,0.00,WUHU216WMR100,2013-01-01 23:36:00,
2013-01-01 17:41:00,16.2,6.9,30.15,NNW,337,0.0,0.0,66,0.00,,,0.00,WUHU216WMR100,2013-01-01 23:41:00,
2013-01-01 17:46:00,16.1,6.8,30.15,NNW,337,0.0,0.0,66,0.00,,,0.00,WUHU216WMR100,2013-01-01 23:46:00,
2013-01-01 17:51:00,15.9,7.0,30.15,NNW,337,0.0,0.0,67,0.00,,,0.00,WUHU216WMR100,2013-01-01 23:51:00,
2013-01-01 17:56:00,15.6,6.3,30.18,NNW,337,0.0,0.0,66,0.00,,,0.00,WUHU216WMR100,2013-01-01 23:56:00,
2013-01-01 18:01:00,15.5,6.3,30.18,NNW,337,0.0,0.0,66,0.00,,,0.00,WUHU216WMR100,2013-01-02 00:01:00,
2013-01-01 18:06:00,15.4,6.1,30.18,NNW,337,0.0,0.0,66,0.00,,,0.00,WUHU216WMR100,2013-01-02 00:06:00,
2013-01-01 18:11:00,15.2,6.3,30.18,NNW,337,0.0,0.0,67,0.00,,,0.00,WUHU216WMR100,2013-01-02 00:11:00,
2013-01-01 18:16:00,14.9,6.0,30.18,NNW,337,0.0,0.0,67,0.00,,,0.00,WUHU216WMR100,2013-01-02 00:16:00,
2013-01-01 18:21:00,14.8,6.2,30.18,NNW,337,0.0,0.0,68,0.00,,,0.00,WUHU216WMR100,2013-01-02 00:21:00,
2013-01-01 18:26:00,14.7,6.4,30.18,NNW,337,0.0,0.0,69,0.00,,,0.00,WUHU216WMR100,2013-01-02 00:26:00,
2013-01-01 18:31:00,14.5,6.6,30.18,NNW,337,0.0,0.0,70,0.00,,,0.00,WUHU216WMR100,2013-01-02 00:31:00,
2013-01-01 18:36:00,14.6,6.6,30.18,NNW,337,0.0,0.0,70,0.00,,,0.00,WUHU216WMR100,2013-01-02 00:36:00,
2013-01-01 18:41:00,14.7,6.7,30.18,NNW,337,0.0,0.0,70,0.00,,,0.00,WUHU216WMR100,2013-01-02 00:41:00,
2013-01-01 18:46:00,14.7,6.7,30.18,NNW,337,0.0,0.0,70,0.00,,,0.00,WUHU216WMR100,2013-01-02 00:46:00,
2013-01-01 18:51:00,14.6,6.9,30.18,NNW,337,0.0,0.0,71,0.00,,,0.00,WUHU216WMR100,2013-01-02 00:51:00,
2013-01-01 18:56:00,14.3,6.7,30.18,NNW,337,0.0,0.0,71,0.00,,,0.00,WUHU216WMR100,2013-01-02 00:56:00,
2013-01-01 19:01:00,14.2,6.5,30.18,NNW,337,0.0,0.0,71,0.00,,,0.00,WUHU216WMR100,2013-01-02 01:01:00,
2013-01-01 19:06:00,14.0,6.7,30.18,NNW,337,0.0,0.0,72,0.00,,,0.00,WUHU216WMR100,2013-01-02 01:06:00,
2013-01-01 19:11:00,13.8,6.5,30.18,NNW,337,0.0,0.0,72,0.00,,,0.00,WUHU216WMR100,2013-01-02 01:11:00,
2013-01-01 19:16:00,13.8,6.5,30.18,NNW,337,0.0,0.0,72,0.00,,,0.00,WUHU216WMR100,2013-01-02 01:16:00,
2013-01-01 19:21:00,14.0,7.0,30.18,NNW,337,0.0,0.0,73,0.00,,,0.00,WUHU216WMR100,2013-01-02 01:21:00,
2013-01-01 19:26:00,14.2,7.2,30.18,NNW,337,0.0,0.0,73,0.00,,,0.00,WUHU216WMR100,2013-01-02 01:26:00,
2013-01-01 19:31:00,14.4,7.4,30.18,NW,315,2.6,2.6,73,0.00,,,0.00,WUHU216WMR100,2013-01-02 01:31:00,
2013-01-01 19:36:00,14.5,7.5,30.18,WNW,292,0.0,2.6,73,0.00,,,0.00,WUHU216WMR100,2013-01-02 01:36:00,
2013-01-01 19:41:00,14.5,7.5,30.18,WNW,292,2.1,2.6,73,0.00,,,0.00,WUHU216WMR100,2013-01-02 01:41:00,
2013-01-01 19:46:00,15.1,8.3,30.18,WNW,292,0.0,4.5,74,0.00,,,0.00,WUHU216WMR100,2013-01-02 01:46:00,
2013-01-01 19:51:00,15.1,8.0,30.18,WNW,292,0.0,4.5,73,0.00,,,0.00,WUHU216WMR100,2013-01-02 01:51:00,
2013-01-01 19:56:00,15.3,8.2,30.18,WNW,292,1.8,3.3,73,0.00,,,0.00,WUHU216WMR100,2013-01-02 01:56:00,
2013-01-01 20:01:00,15.3,7.9,30.18,WNW,292,0.0,3.3,72,0.00,,,0.00,WUHU216WMR100,2013-01-02 02:01:00,
2013-01-01 20:06:00,15.3,7.3,30.18,WNW,292,2.6,2.6,70,0.00,,,0.00,WUHU216WMR100,2013-01-02 02:06:00,
2013-01-01 20:11:00,15.3,7.3,30.18,WNW,292,0.0,3.6,70,0.00,,,0.00,WUHU216WMR100,2013-01-02 02:11:00,
2013-01-01 20:16:00,14.5,5.9,30.18,WNW,292,0.0,3.6,68,0.00,,,0.00,WUHU216WMR100,2013-01-02 02:16:00,
2013-01-01 20:21:00,14.5,5.9,30.18,WNW,292,0.0,0.0,68,0.00,,,0.00,WUHU216WMR100,2013-01-02 02:21:00,
2013-01-01 20:26:00,14.5,5.9,30.18,WNW,292,2.6,2.6,68,0.00,,,0.00,WUHU216WMR100,2013-01-02 02:26:00,
2013-01-01 20:31:00,14.4,5.8,30.18,WNW,292,0.0,2.6,68,0.00,,,0.00,WUHU216WMR100,2013-01-02 02:31:00,
2013-01-01 20:36:00,14.5,5.9,30.18,WNW,292,0.0,2.6,68,0.00,,,0.00,WUHU216WMR100,2013-01-02 02:36:00,
2013-01-01 20:41:00,14.7,6.1,30.18,WNW,292,4.1,4.1,68,0.00,,,0.00,WUHU216WMR100,2013-01-02 02:41:00,
2013-01-01 20:46:00,15.1,6.5,30.18,West,270,4.5,4.5,68,0.00,,,0.00,WUHU216WMR100,2013-01-02 02:46:00,
2013-01-01 20:51:00,15.3,6.7,30.18,WNW,292,1.8,4.5,68,0.00,,,0.00,WUHU216WMR100,2013-01-02 02:51:00,
2013-01-01 20:56:00,15.3,6.4,30.18,WNW,292,2.6,4.5,67,0.00,,,0.00,WUHU216WMR100,2013-01-02 02:56:00,
2013-01-01 21:01:00,15.3,6.0,30.18,WNW,292,3.3,4.5,66,0.00,,,0.00,WUHU216WMR100,2013-01-02 03:01:00,
2013-01-01 21:06:00,15.3,5.7,30.18,WNW,292,2.1,4.5,65,0.00,,,0.00,WUHU216WMR100,2013-01-02 03:06:00,
2013-01-01 21:11:00,15.3,5.7,30.18,NW,315,4.1,5.9,65,0.00,,,0.00,WUHU216WMR100,2013-01-02 03:11:00,
2013-01-01 21:16:00,15.3,5.3,30.18,WNW,292,1.5,5.9,64,0.00,,,0.00,WUHU216WMR100,2013-01-02 03:16:00,
2013-01-01 21:21:00,15.4,5.1,30.18,WNW,292,1.8,5.6,63,0.00,,,0.00,WUHU216WMR100,2013-01-02 03:21:00,
2013-01-01 21:26:00,15.3,4.6,30.18,WNW,292,0.0,5.6,62,0.00,,,0.00,WUHU216WMR100,2013-01-02 03:26:00,
2013-01-01 21:31:00,15.1,4.5,30.18,WNW,292,1.5,4.1,62,0.00,,,0.00,WUHU216WMR100,2013-01-02 03:31:00,
2013-01-01 21:36:00,14.9,4.3,30.18,WSW,247,5.1,5.1,62,0.00,,,0.00,WUHU216WMR100,2013-01-02 03:36:00,
2013-01-01 21:41:00,15.1,4.1,30.18,NW,315,4.1,5.1,61,0.00,,,0.00,WUHU216WMR100,2013-01-02 03:41:00,
2013-01-01 21:46:00,15.1,3.7,30.18,West,270,4.5,5.1,60,0.00,,,0.00,WUHU216WMR100,2013-01-02 03:46:00,
2013-01-01 21:51:00,14.9,3.5,30.18,WNW,292,2.6,5.1,60,0.00,,,0.00,WUHU216WMR100,2013-01-02 03:51:00,
2013-01-01 21:56:00,14.5,3.2,30.18,West,270,3.3,4.5,60,0.00,,,0.00,WUHU216WMR100,2013-01-02 03:56:00,
2013-01-01 22:01:00,14.4,3.1,30.18,West,270,2.1,3.3,60,0.00,,,0.00,WUHU216WMR100,2013-01-02 04:01:00,
2013-01-01 22:06:00,14.2,2.9,30.18,West,270,5.9,5.9,60,0.00,,,0.00,WUHU216WMR100,2013-01-02 04:06:00,
2013-01-01 22:11:00,14.2,2.9,30.18,WNW,292,0.0,5.9,60,0.00,,,0.00,WUHU216WMR100,2013-01-02 04:11:00,
2013-01-01 22:16:00,13.8,2.9,30.18,WNW,292,1.8,5.9,61,0.00,,,0.00,WUHU216WMR100,2013-01-02 04:16:00,
2013-01-01 22:21:00,13.6,2.7,30.18,WNW,292,1.8,3.6,61,0.00,,,0.00,WUHU216WMR100,2013-01-02 04:21:00,
2013-01-01 22:26:00,13.6,2.7,30.18,WNW,292,4.8,4.8,61,0.00,,,0.00,WUHU216WMR100,2013-01-02 04:26:00,
2013-01-01 22:31:00,13.5,2.6,30.18,WNW,292,3.6,4.8,61,0.00,,,0.00,WUHU216WMR100,2013-01-02 04:31:00,
2013-01-01 22:36:00,13.3,2.4,30.18,West,270,3.6,4.5,61,0.00,,,0.00,WUHU216WMR100,2013-01-02 04:36:00,
2013-01-01 22:41:00,13.3,2.4,30.18,WNW,292,4.1,5.1,61,0.00,,,0.00,WUHU216WMR100,2013-01-02 04:41:00,
2013-01-01 22:46:00,13.3,2.4,30.18,WNW,292,5.1,5.1,61,0.00,,,0.00,WUHU216WMR100,2013-01-02 04:46:00,
2013-01-01 22:51:00,13.1,2.2,30.18,WNW,292,6.3,6.3,61,0.00,,,0.00,WUHU216WMR100,2013-01-02 04:51:00,
2013-01-01 22:56:00,13.3,2.4,30.18,WNW,292,5.9,6.3,61,0.00,,,0.00,WUHU216WMR100,2013-01-02 04:56:00,
2013-01-01 23:00:00,13.3,2.4,30.18,WNW,292,5.1,6.3,61,0.00,,,0.00,WUHU216WMR100,2013-01-02 05:00:00,
2013-01-01 23:05:00,13.3,2.4,30.18,WSW,247,6.3,6.3,61,0.00,,,0.00,WUHU216WMR100,2013-01-02 05:05:00,
2013-01-01 23:10:00,13.6,2.7,30.18,WNW,292,7.1,7.1,61,0.00,,,0.00,WUHU216WMR100,2013-01-02 05:10:00,
2013-01-01 23:15:00,13.5,2.6,30.18,WNW,292,3.6,7.1,61,0.00,,,0.00,WUHU216WMR100,2013-01-02 05:15:00,
2013-01-01 23:20:00,13.1,2.2,30.18,WNW,292,2.1,7.1,61,0.00,,,0.00,WUHU216WMR100,2013-01-02 05:20:00,
2013-01-01 23:25:00,12.9,2.0,30.18,WNW,292,1.5,3.6,61,0.00,,,0.00,WUHU216WMR100,2013-01-02 05:25:00,
2013-01-01 23:30:00,12.7,1.8,30.18,WSW,247,6.3,6.3,61,0.00,,,0.00,WUHU216WMR100,2013-01-02 05:30:00,
2013-01-01 23:35:00,12.7,1.8,30.18,WNW,292,3.3,6.3,61,0.00,,,0.00,WUHU216WMR100,2013-01-02 05:35:00,
2013-01-01 23:40:00,12.7,1.8,30.18,WNW,292,3.3,6.3,61,0.00,,,0.00,WUHU216WMR100,2013-01-02 05:40:00,
2013-01-01 23:45:00,12.6,1.7,30.18,WNW,292,0.0,4.5,61,0.00,,,0.00,WUHU216WMR100,2013-01-02 05:45:00,
2013-01-01 23:50:00,12.6,1.7,30.18,WNW,292,3.6,5.9,61,0.00,,,0.00,WUHU216WMR100,2013-01-02 05:50:00,
2013-01-01 23:55:00,12.6,1.7,30.18,WNW,292,3.3,5.9,61,0.00,,,0.00,WUHU216WMR100,2013-01-02 05:55:00,